Time;durP1;ratioP1;P1;durP2;ratioP2;P2;SDS_P1;SDS_P2;PMS_P1;PMS_P2;Temp;Humidity;BMP_temperature;BMP_pressure;BME280_temperature;BME280_humidity;BME280_pressure;Samples;Min_cycle;Max_cycle;Signal;HPM_P1;HPM_P2
2022/09/15 00:00:36;;;;;;;24.25;12.20;;;;;;;11.49;100.00;100616.25;5028703;28;20692;-86
2022/09/15 00:03:01;;;;;;;25.67;11.30;;;;;;;11.46;100.00;100620.25;5009157;28;20026;-87
2022/09/15 00:05:27;;;;;;;25.57;12.43;;;;;;;11.43;100.00;100620.00;5012917;28;20022;-87
2022/09/15 00:07:52;;;;;;;24.38;12.32;;;;;;;11.51;100.00;100628.31;5012478;28;20052;-87
2022/09/15 00:10:18;;;;;;;34.10;13.77;;;;;;;11.52;100.00;100631.78;5012149;28;20721;-87
2022/09/15 00:12:44;;;;;;;27.77;13.15;;;;;;;11.43;100.00;100614.63;5012745;28;20524;-87
2022/09/15 00:15:13;;;;;;;31.17;12.27;;;;;;;11.43;100.00;100630.72;5012212;28;20030;-87
2022/09/15 00:17:39;;;;;;;25.45;12.73;;;;;;;11.42;100.00;100619.16;5009698;28;20030;-86
2022/09/15 00:20:06;;;;;;;26.03;12.17;;;;;;;11.34;100.00;100617.81;5031138;28;20082;-87
2022/09/15 00:22:31;;;;;;;33.72;13.55;;;;;;;11.43;100.00;100628.03;5032172;28;20053;-87
2022/09/15 00:24:56;;;;;;;33.50;13.33;;;;;;;11.42;100.00;100629.91;5031961;28;20870;-86
2022/09/15 00:27:22;;;;;;;28.07;12.97;;;;;;;11.38;100.00;100622.66;5032218;28;20397;-87
2022/09/15 00:29:47;;;;;;;30.00;13.77;;;;;;;11.32;100.00;100603.88;5031770;28;20033;-86
2022/09/15 00:32:12;;;;;;;31.35;13.25;;;;;;;11.38;100.00;100606.56;5031652;28;20022;-87
2022/09/15 00:34:38;;;;;;;31.47;13.33;;;;;;;11.36;100.00;100602.28;5019226;28;20030;-86
2022/09/15 00:37:03;;;;;;;33.60;13.50;;;;;;;11.45;100.00;100617.84;5023315;28;20033;-87
2022/09/15 00:39:28;;;;;;;34.33;13.57;;;;;;;11.47;100.00;100604.97;5032224;28;20541;-87
2022/09/15 00:41:54;;;;;;;32.03;14.87;;;;;;;11.58;100.00;100606.56;5031866;28;20481;-86
2022/09/15 00:44:25;;;;;;;38.07;16.53;;;;;;;11.68;100.00;100610.31;5031752;28;20029;-87
2022/09/15 00:46:53;;;;;;;43.03;17.33;;;;;;;11.72;100.00;100614.88;5031795;28;20401;-87
2022/09/15 00:49:27;;;;;;;46.83;16.58;;;;;;;11.79;100.00;100607.34;5031158;28;20543;-86
2022/09/15 00:52:05;;;;;;;37.42;15.75;;;;;;;11.82;100.00;100611.38;5014606;28;20029;-87
2022/09/15 00:54:45;;;;;;;37.47;16.45;;;;;;;11.81;100.00;100615.13;5031604;28;20049;-87
2022/09/15 00:57:24;;;;;;;40.00;17.17;;;;;;;11.92;100.00;100615.91;5031487;28;20056;-87
2022/09/15 00:59:51;;;;;;;35.40;15.27;;;;;;;11.92;100.00;100615.91;5030946;28;20033;-87
2022/09/15 01:02:26;;;;;;;37.10;16.15;;;;;;;11.93;100.00;100614.84;5030064;28;20028;-86
2022/09/15 01:04:54;;;;;;;36.80;16.52;;;;;;;11.97;100.00;100621.25;5031295;28;20420;-86
2022/09/15 01:07:31;;;;;;;32.80;15.53;;;;;;;11.92;100.00;100607.88;5011333;28;20025;-87
2022/09/15 01:10:01;;;;;;;34.87;15.23;;;;;;;11.93;100.00;100604.91;4992657;28;20395;-87
2022/09/15 01:12:27;;;;;;;35.92;16.60;;;;;;;12.05;100.00;100626.13;4998216;28;20034;-87
2022/09/15 01:14:52;;;;;;;38.20;16.45;;;;;;;12.01;100.00;100603.56;5011775;28;20022;-87
2022/09/15 01:17:48;;;;;;;40.90;17.30;;;;;;;12.08;100.00;100617.53;5011812;28;20030;-87
2022/09/15 01:20:28;;;;;;;35.17;16.17;;;;;;;12.09;100.00;100615.63;5011233;28;20316;-87
2022/09/15 01:23:21;;;;;;;37.10;16.83;;;;;;;12.10;100.00;100618.06;5014413;28;20029;-87
2022/09/15 01:26:22;;;;;;;37.13;16.85;;;;;;;12.12;100.00;100631.19;5026384;28;20068;-86
2022/09/15 01:29:10;;;;;;;37.47;16.33;;;;;;;12.09;100.00;100624.50;5017773;28;20033;-87
2022/09/15 01:34:40;;;;;;;41.35;17.05;;;;;;;12.11;100.00;100608.91;5011200;28;20109;-86
2022/09/15 01:37:15;;;;;;;35.85;16.05;;;;;;;12.11;100.00;100611.59;5011536;28;20049;-86
2022/09/15 01:39:46;;;;;;;37.22;16.30;;;;;;;12.20;100.00;100621.78;5041951;28;20026;-86
2022/09/15 01:45:13;;;;;;;35.80;15.67;;;;;;;12.16;100.00;100620.69;5009947;28;20097;-86
2022/09/15 01:50:56;;;;;;;36.72;15.95;;;;;;;11.95;100.00;100594.69;5007543;28;20085;-86
2022/09/15 01:53:22;;;;;;;35.38;16.10;;;;;;;12.08;100.00;100611.31;5010952;28;20057;-86
2022/09/15 01:55:55;;;;;;;39.60;16.60;;;;;;;12.00;100.00;100610.00;5009455;28;20041;-87
2022/09/15 01:58:21;;;;;;;37.97;16.58;;;;;;;12.09;100.00;100621.00;5010441;28;20072;-87
2022/09/15 02:00:52;;;;;;;36.42;16.92;;;;;;;12.04;100.00;100618.34;5013390;28;20021;-86
2022/09/15 02:03:34;;;;;;;36.80;16.30;;;;;;;12.09;100.00;100629.88;5022804;28;20026;-86
2022/09/15 02:06:34;;;;;;;38.20;16.48;;;;;;;12.07;100.00;100623.16;5026992;28;20048;-86
2022/09/15 02:09:11;;;;;;;32.88;15.65;;;;;;;12.04;100.00;100618.34;5017858;28;20030;-86
2022/09/15 02:11:44;;;;;;;37.43;16.37;;;;;;;11.97;100.00;100605.97;5038969;28;20136;-87
2022/09/15 02:14:27;;;;;;;39.50;16.87;;;;;;;11.92;100.00;100597.91;5013812;28;20394;-86
2022/09/15 02:16:53;;;;;;;42.58;16.13;;;;;;;11.86;100.00;100612.44;5031012;28;20036;-86
2022/09/15 02:19:31;;;;;;;33.97;15.77;;;;;;;11.83;100.00;100607.63;5032748;28;20040;-86
2022/09/15 02:22:16;;;;;;;40.05;16.38;;;;;;;11.74;100.00;100590.44;5034827;28;20021;-86
2022/09/15 02:24:51;;;;;;;38.50;16.98;;;;;;;11.86;100.00;100607.06;5035507;28;20120;-86
2022/09/15 02:27:22;;;;;;;34.95;17.10;;;;;;;11.85;100.00;100602.78;5025268;28;20029;-86
2022/09/15 02:29:52;;;;;;;38.13;17.08;;;;;;;11.89;100.00;100611.88;5023827;28;20061;-86
2022/09/15 02:32:22;;;;;;;33.72;16.40;;;;;;;11.85;100.00;100610.00;5013517;28;20030;-86
2022/09/15 02:34:50;;;;;;;36.85;16.92;;;;;;;11.83;100.00;100612.97;5012813;28;20034;-86
2022/09/15 02:37:18;;;;;;;35.07;16.80;;;;;;;11.73;100.00;100602.25;5014612;28;20104;-86
2022/09/15 02:39:50;;;;;;;36.93;17.10;;;;;;;11.60;100.00;100601.72;5023258;28;20308;-86
2022/09/15 02:42:26;;;;;;;33.80;16.08;;;;;;;11.51;100.00;100595.28;5034512;28;20044;-87
2022/09/15 02:44:52;;;;;;;30.00;15.32;;;;;;;11.39;100.00;100606.31;5012308;28;20237;-87
2022/09/15 02:47:17;;;;;;;33.92;15.30;;;;;;;11.34;100.00;100606.31;5017463;28;20120;-87
2022/09/15 02:49:43;;;;;;;36.70;15.87;;;;;;;11.26;100.00;100613.00;5033591;28;20037;-86
2022/09/15 02:52:08;;;;;;;31.40;15.13;;;;;;;11.17;100.00;100611.91;5032390;28;20048;-87
2022/09/15 02:54:33;;;;;;;41.63;16.93;;;;;;;11.11;100.00;100610.31;5034299;28;20017;-87
2022/09/15 02:56:59;;;;;;;39.75;17.00;;;;;;;11.01;100.00;100600.38;5033664;28;20464;-86
2022/09/15 02:59:25;;;;;;;34.07;17.00;;;;;;;11.03;100.00;100609.75;5024255;28;20037;-86
2022/09/15 03:01:51;;;;;;;40.63;17.48;;;;;;;10.95;100.00;100596.91;5023423;28;20200;-87
2022/09/15 03:04:17;;;;;;;37.30;17.07;;;;;;;10.99;100.00;100613.25;5021368;28;20026;-87
2022/09/15 03:06:45;;;;;;;38.47;15.90;;;;;;;10.88;100.00;100607.06;5014103;28;20347;-87
2022/09/15 03:09:11;;;;;;;35.92;16.52;;;;;;;10.88;100.00;100615.91;5011961;28;20041;-86
2022/09/15 03:11:37;;;;;;;35.42;17.23;;;;;;;10.84;100.00;100612.16;5013529;28;20505;-86
2022/09/15 03:14:04;;;;;;;42.80;17.63;;;;;;;10.87;100.00;100621.53;5011832;28;20113;-86
2022/09/15 03:16:33;;;;;;;40.58;17.75;;;;;;;10.76;100.00;100609.97;5011440;28;20111;-86
2022/09/15 03:18:59;;;;;;;42.28;17.85;;;;;;;10.83;100.00;100628.47;5012757;28;20088;-86
2022/09/15 03:21:28;;;;;;;43.40;18.63;;;;;;;10.81;100.00;100619.91;5012583;28;20136;-86
2022/09/15 03:23:53;;;;;;;36.93;18.23;;;;;;;10.74;100.00;100606.75;5013305;28;20276;-86
2022/09/15 03:26:18;;;;;;;47.40;19.55;;;;;;;10.86;100.00;100618.03;5013401;28;20034;-86
2022/09/15 03:28:44;;;;;;;47.33;19.37;;;;;;;10.90;100.00;100629.06;5016326;28;20025;-85
2022/09/15 03:31:09;;;;;;;45.63;19.90;;;;;;;10.99;100.00;100637.38;5026861;28;20026;-86
2022/09/15 03:33:35;;;;;;;50.17;20.30;;;;;;;11.02;100.00;100634.97;5020054;28;20121;-86
2022/09/15 03:36:01;;;;;;;48.33;21.33;;;;;;;11.03;100.00;100625.06;5032893;28;20703;-86
2022/09/15 03:38:27;;;;;;;45.07;21.27;;;;;;;11.19;100.00;100634.75;5012774;28;20029;-86
2022/09/15 03:41:01;;;;;;;54.57;22.97;;;;;;;11.31;100.00;100645.22;5012666;28;20919;-86
2022/09/15 03:43:28;;;;;;;55.92;22.45;;;;;;;11.36;100.00;100637.16;5012568;28;20103;-86
2022/09/15 03:45:55;;;;;;;54.90;22.48;;;;;;;11.49;100.00;100656.50;5032481;28;20022;-86
2022/09/15 03:48:22;;;;;;;54.35;22.63;;;;;;;11.46;100.00;100635.56;5019338;28;20442;-86
2022/09/15 03:50:47;;;;;;;57.50;24.70;;;;;;;11.58;100.00;100651.38;5032352;28;20469;-86
2022/09/15 03:53:13;;;;;;;53.17;22.90;;;;;;;11.48;100.00;100625.38;5028490;28;20037;-86
2022/09/15 03:55:38;;;;;;;55.05;23.30;;;;;;;11.61;100.00;100648.16;5012823;28;20037;-86
2022/09/15 03:58:04;;;;;;;56.37;23.43;;;;;;;11.55;100.00;100636.63;5012330;28;20026;-87
2022/09/15 04:00:29;;;;;;;51.40;21.83;;;;;;;11.61;100.00;100642.78;5012529;28;20028;-86
2022/09/15 04:02:54;;;;;;;54.47;22.03;;;;;;;11.58;100.00;100629.94;5012597;28;20065;-86
2022/09/15 04:05:20;;;;;;;53.47;22.33;;;;;;;11.66;100.00;100638.25;5022999;28;20033;-87
2022/09/15 04:07:45;;;;;;;48.07;21.77;;;;;;;11.70;100.00;100637.66;5032370;28;20367;-87
2022/09/15 04:10:11;;;;;;;44.43;21.30;;;;;;;11.69;100.00;100633.38;5024247;28;20034;-87
2022/09/15 04:12:36;;;;;;;52.27;22.07;;;;;;;11.68;100.00;100642.53;5011475;28;20022;-87
2022/09/15 04:15:02;;;;;;;44.63;21.20;;;;;;;11.58;100.00;100628.03;5012321;28;20643;-87
2022/09/15 04:17:28;;;;;;;45.67;20.92;;;;;;;11.61;100.00;100646.28;5024124;28;20416;-89
2022/09/15 04:19:53;;;;;;;43.43;19.93;;;;;;;11.60;100.00;100647.34;5025074;28;20048;-88
2022/09/15 04:22:19;;;;;;;45.97;19.87;;;;;;;11.55;100.00;100635.81;5028037;28;20302;-89
2022/09/15 04:24:46;;;;;;;38.97;19.83;;;;;;;11.50;100.00;100639.31;5032549;28;20492;-87
2022/09/15 04:27:12;;;;;;;37.25;18.55;;;;;;;11.46;100.00;100636.34;5032921;28;20018;-89
2022/09/15 04:29:38;;;;;;;38.47;18.63;;;;;;;11.51;100.00;100643.59;5032678;28;20021;-88
2022/09/15 04:32:03;;;;;;;40.77;19.80;;;;;;;11.56;100.00;100640.91;5032383;28;20507;-88
2022/09/15 04:34:29;;;;;;;45.42;20.95;;;;;;;11.59;100.00;100637.69;5022384;28;20029;-89
2022/09/15 04:36:54;;;;;;;35.90;19.23;;;;;;;11.58;100.00;100636.09;5011672;28;20036;-88
2022/09/15 04:39:19;;;;;;;39.00;19.97;;;;;;;11.61;100.00;100632.88;5012309;28;20029;-88
2022/09/15 04:41:44;;;;;;;40.17;20.13;;;;;;;11.62;100.00;100636.34;5011083;28;20022;-88
2022/09/15 04:44:10;;;;;;;36.60;18.17;;;;;;;11.64;100.00;100634.19;5030838;28;20484;-88
2022/09/15 04:46:36;;;;;;;40.05;19.40;;;;;;;11.74;100.00;100644.94;5033122;28;20021;-88
2022/09/15 04:51:37;;;;;;;39.20;19.50;;;;;;;11.63;100.00;100625.34;5162637;22;20057;-88
2022/09/15 04:54:02;;;;;;;35.10;18.55;;;;;;;11.80;100.00;100651.09;5030555;28;20105;-88
2022/09/15 04:56:27;;;;;;;41.03;19.67;;;;;;;11.72;100.00;100633.66;5051831;28;20064;-87
2022/09/15 04:58:59;;;;;;;40.47;19.40;;;;;;;11.82;100.00;100651.63;5032972;28;20100;-88
2022/09/15 05:01:31;;;;;;;40.30;19.97;;;;;;;11.74;100.00;100631.53;5033391;28;20029;-88
2022/09/15 05:03:56;;;;;;;38.05;19.20;;;;;;;11.78;100.00;100647.88;5030969;28;20089;-88
2022/09/15 05:06:24;;;;;;;35.50;17.63;;;;;;;11.75;100.00;100648.41;5029794;28;20123;-88
2022/09/15 05:08:53;;;;;;;34.30;18.38;;;;;;;11.68;100.00;100650.59;5026428;28;20029;-88
2022/09/15 05:11:19;;;;;;;29.88;16.92;;;;;;;11.60;100.00;100660.78;5010809;28;20057;-87
2022/09/15 05:13:45;;;;;;;34.53;16.83;;;;;;;11.52;100.00;100659.44;5003226;28;20478;-87
2022/09/15 05:16:13;;;;;;;32.92;18.00;;;;;;;11.47;100.00;100647.91;5011453;28;20485;-87
2022/09/15 05:18:40;;;;;;;40.13;18.58;;;;;;;11.57;100.00;100644.41;5028083;28;20493;-88
2022/09/15 05:21:06;;;;;;;36.35;17.42;;;;;;;11.37;100.00;100616.50;5010795;28;20470;-87
2022/09/15 05:23:41;;;;;;;35.13;18.07;;;;;;;11.41;100.00;100632.88;5012190;28;20026;-87
2022/09/15 05:26:30;;;;;;;;;;;;;;;;;;;;;
2022/09/15 05:28:56;;;;;;;34.58;17.15;;;;;;;11.45;100.00;100623.22;5000835;28;20557;-87
2022/09/15 05:31:29;;;;;;;45.47;18.92;;;;;;;11.62;100.00;100647.91;4991651;28;20109;-88
2022/09/15 05:33:55;;;;;;;34.10;18.05;;;;;;;11.63;100.00;100640.63;5006962;28;20092;-88
2022/09/15 05:36:23;;;;;;;36.97;18.15;;;;;;;11.50;100.00;100625.91;5011377;28;20384;-89
2022/09/15 05:38:49;;;;;;;40.67;19.03;;;;;;;11.63;100.00;100660.25;5019397;28;20048;-88
2022/09/15 05:41:17;;;;;;;40.20;19.27;;;;;;;11.61;100.00;100650.84;5021267;28;20300;-87
2022/09/15 05:43:43;;;;;;;42.05;20.15;;;;;;;11.66;100.00;100657.03;5022618;28;20034;-87
2022/09/15 05:46:10;;;;;;;37.38;18.92;;;;;;;11.63;100.00;100640.63;5020877;28;20025;-88
2022/09/15 05:48:35;;;;;;;45.03;21.00;;;;;;;11.74;100.00;100652.16;5017156;28;20034;-88
2022/09/15 05:51:02;;;;;;;42.17;20.67;;;;;;;11.86;100.00;100662.63;5010082;28;20137;-87
2022/09/15 05:53:27;;;;;;;41.55;20.60;;;;;;;11.87;100.00;100662.34;5018725;28;20524;-87
2022/09/15 05:55:57;;;;;;;46.75;20.67;;;;;;;12.00;100.00;100676.34;5029016;28;20120;-86
2022/09/15 05:58:24;;;;;;;45.47;21.50;;;;;;;12.01;100.00;100669.91;5029348;28;20079;-85
2022/09/15 06:00:52;;;;;;;41.23;20.80;;;;;;;12.15;100.00;100678.19;5029851;28;20363;-86
2022/09/15 06:03:18;;;;;;;44.55;21.70;;;;;;;12.20;100.00;100681.69;5028770;28;20401;-87
2022/09/15 06:05:43;;;;;;;44.75;21.08;;;;;;;12.21;100.00;100674.41;5016747;28;20397;-88
2022/09/15 06:08:09;;;;;;;44.00;22.25;;;;;;;12.29;100.00;100683.81;5054150;22;20041;-86
2022/09/15 06:10:35;;;;;;;42.53;21.43;;;;;;;12.34;100.00;100687.28;5028995;28;20033;-87
2022/09/15 06:13:00;;;;;;;41.47;21.98;;;;;;;12.40;100.00;100691.56;5031629;28;20113;-87
2022/09/15 06:15:26;;;;;;;41.53;21.13;;;;;;;12.42;100.00;100693.97;5026660;28;20035;-87
2022/09/15 06:17:51;;;;;;;37.23;20.73;;;;;;;12.47;100.00;100695.84;5026650;28;20061;-86
2022/09/15 06:20:17;;;;;;;44.87;21.40;;;;;;;12.40;100.00;100680.81;5010280;28;20336;-86
2022/09/15 06:22:43;;;;;;;39.40;20.80;;;;;;;12.47;100.00;100685.91;5010243;28;20441;-86
2022/09/15 06:25:09;;;;;;;41.10;20.92;;;;;;;12.56;100.00;100692.34;5023059;28;20040;-86
2022/09/15 06:27:36;;;;;;;36.10;19.58;;;;;;;12.62;100.00;100705.72;5028888;28;20108;-85
2022/09/15 06:30:02;;;;;;;31.02;18.13;;;;;;;12.65;100.00;100703.31;5027960;28;20046;-86
2022/09/15 06:32:30;;;;;;;37.38;19.58;;;;;;;12.75;100.00;100707.03;5029700;28;20468;-86
2022/09/15 06:34:56;;;;;;;35.92;18.75;;;;;;;12.93;100.00;100719.06;5027801;28;20044;-86
2022/09/15 06:37:21;;;;;;;36.63;18.53;;;;;;;12.99;100.00;100710.69;5023587;28;20113;-85
2022/09/15 06:39:46;;;;;;;36.50;19.93;;;;;;;13.08;100.00;100710.09;5024024;28;20033;-86
2022/09/15 06:42:12;;;;;;;30.83;18.17;;;;;;;13.22;100.00;100718.38;5016953;28;20053;-86
2022/09/15 06:44:37;;;;;;;32.10;18.15;;;;;;;13.26;100.00;100708.66;5028221;28;20801;-86
2022/09/15 06:47:03;;;;;;;33.37;17.13;;;;;;;13.32;100.00;100719.13;5029539;28;20052;-86
2022/09/15 06:49:30;;;;;;;27.23;16.60;;;;;;;13.39;100.00;100724.19;5029896;28;20382;-86
2022/09/15 06:51:56;;;;;;;29.30;17.20;;;;;;;13.40;100.00;100717.75;5029238;28;20030;-86
2022/09/15 06:54:21;;;;;;;26.25;16.00;;;;;;;13.41;100.00;100729.34;5029811;28;20079;-86
2022/09/15 06:56:47;;;;;;;28.37;16.17;;;;;;;13.26;100.00;100722.91;5029883;28;20500;-86
2022/09/15 06:59:14;;;;;;;27.05;14.82;;;;;;;13.28;100.00;100738.78;5028683;28;20056;-87
2022/09/15 07:01:43;;;;;;;23.38;15.27;;;;;;;13.26;100.00;100732.88;5029441;28;20048;-86
2022/09/15 07:04:09;;;;;;;25.33;16.17;;;;;;;13.40;100.00;100743.84;5029927;28;20141;-86
2022/09/15 07:06:37;;;;;;;26.23;17.08;;;;;;;13.59;100.00;100752.09;5029762;28;20022;-86
2022/09/15 07:09:13;;;;;;;29.52;17.55;;;;;;;13.58;100.00;100713.59;5325895;22;20519;-86
2022/09/15 07:19:04;;;;;;;28.40;17.38;;;;;;;14.52;100.00;100751.28;4875250;29;20112;-88
2022/09/15 07:21:29;;;;;;;25.90;15.32;;;;;;;14.45;100.00;100742.72;4883636;29;20073;-88
2022/09/15 07:23:58;;;;;;;28.07;15.43;;;;;;;14.64;100.00;100758.97;4980557;28;20065;-86
2022/09/15 07:26:28;;;;;;;28.55;16.20;;;;;;;14.77;100.00;100758.31;5023414;28;20102;-85
2022/09/15 07:28:59;;;;;;;25.45;13.77;;;;;;;14.94;100.00;100754.34;5022279;28;20129;-86
2022/09/15 07:31:26;;;;;;;26.90;13.95;;;;;;;15.12;100.00;100760.88;5030963;28;20056;-86
2022/09/15 07:33:54;;;;;;;23.15;13.73;;;;;;;15.20;100.00;100762.09;5008222;28;20026;-87
2022/09/15 07:36:20;;;;;;;19.85;13.75;;;;;;;15.22;100.00;100758.03;5011914;28;20026;-86
2022/09/15 07:38:47;;;;;;;19.50;12.17;;;;;;;15.20;100.00;100768.28;5017392;28;20018;-86
2022/09/15 07:41:17;;;;;;;19.70;11.35;;;;;;;15.26;100.00;100766.31;5013201;28;20576;-87
2022/09/15 07:43:47;;;;;;;20.92;11.77;;;;;;;15.32;100.00;100772.47;5012310;28;20060;-86
2022/09/15 07:46:13;;;;;;;21.23;12.35;;;;;;;15.33;100.00;100764.09;5009677;28;20030;-85
2022/09/15 07:48:38;;;;;;;20.73;11.90;;;;;;;15.37;100.00;100759.72;5014156;28;20443;-86
2022/09/15 07:51:04;;;;;;;18.80;11.60;;;;;;;15.48;100.00;100764.94;5011455;28;20022;-85
2022/09/15 07:53:29;;;;;;;18.60;12.23;;;;;;;15.63;100.00;100772.03;5011543;28;20022;-85
2022/09/15 07:55:55;;;;;;;18.27;11.70;;;;;;;15.68;100.00;100785.47;5013700;28;20072;-86
2022/09/15 07:58:21;;;;;;;21.15;11.63;;;;;;;15.70;100.00;100778.66;5012903;28;20374;-86
2022/09/15 08:00:47;;;;;;;18.52;11.18;;;;;;;15.60;100.00;100785.03;5012429;28;20113;-86
2022/09/15 08:03:13;;;;;;;19.45;10.48;;;;;;;15.43;100.00;100790.91;5012538;28;20042;-85
2022/09/15 08:05:38;;;;;;;19.83;10.80;;;;;;;15.54;100.00;100791.59;5011135;28;20449;-85
2022/09/15 08:08:04;;;;;;;20.40;10.50;;;;;;;15.56;100.00;100797.50;5011554;28;20104;-85
2022/09/15 08:10:30;;;;;;;14.70;9.57;;;;;;;15.42;100.00;100783.13;5011913;28;20030;-85
2022/09/15 08:12:57;;;;;;;14.87;9.20;;;;;;;15.45;100.00;100793.34;5012646;28;20652;-86
2022/09/15 08:15:23;;;;;;;17.45;9.38;;;;;;;15.39;100.00;100787.22;5011402;28;20049;-85
2022/09/15 08:17:48;;;;;;;14.57;8.93;;;;;;;15.49;100.00;100804.34;5012062;28;20061;-85
2022/09/15 08:20:14;;;;;;;15.77;9.73;;;;;;;15.52;100.00;100798.38;5012003;28;20026;-85
2022/09/15 08:22:41;;;;;;;14.83;9.83;;;;;;;15.71;100.00;100791.09;5012534;28;20034;-85
2022/09/15 08:25:06;;;;;;;17.90;10.10;;;;;;;15.89;100.00;100784.06;5010710;28;20030;-85
2022/09/15 08:27:32;;;;;;;20.35;9.98;;;;;;;16.18;100.00;100802.00;5011328;28;20030;-85
2022/09/15 08:29:57;;;;;;;16.07;9.63;;;;;;;16.31;100.00;100803.13;5011936;28;20025;-85
2022/09/15 08:32:22;;;;;;;13.07;8.60;;;;;;;16.32;100.00;100803.91;5011015;28;20026;-85
2022/09/15 08:34:48;;;;;;;11.70;7.83;;;;;;;16.30;100.00;100804.22;5011903;28;20034;-85
2022/09/15 08:37:13;;;;;;;15.27;8.40;;;;;;;16.27;100.00;100809.41;5010354;28;20456;-85
2022/09/15 08:39:39;;;;;;;13.10;7.80;;;;;;;16.43;100.00;100826.97;5011125;28;20478;-86
2022/09/15 08:42:05;;;;;;;13.10;7.17;;;;;;;16.50;100.00;100832.00;5011234;28;20426;-85
2022/09/15 08:44:54;;;;;;;12.60;6.75;;;;;;;16.43;100.00;100824.25;5010007;28;20025;-85
2022/09/15 08:47:24;;;;;;;15.60;6.90;;;;;;;16.33;100.00;100822.56;5011888;28;20030;-85
2022/09/15 08:50:06;;;;;;;12.93;7.07;;;;;;;16.33;100.00;100829.84;5010424;28;20049;-85
2022/09/15 08:53:10;;;;;;;12.30;7.07;;;;;;;16.27;100.00;100831.84;5009873;28;20068;-85
2022/09/15 08:55:49;;;;;;;15.47;7.00;;;;;;;16.39;100.00;100831.38;5001102;28;20811;-85
2022/09/15 08:58:20;;;;;;;12.60;6.30;;;;;;;16.54;100.00;100834.91;5008679;28;20030;-85
2022/09/15 09:00:47;;;;;;;12.52;6.60;;;;;;;16.64;100.00;100830.13;5009801;28;20037;-85
2022/09/15 09:03:47;;;;;;;14.48;6.75;;;;;;;16.90;100.00;100834.25;5011660;28;20160;-85
2022/09/15 09:06:25;;;;;;;7.75;6.60;;;;;;;17.14;100.00;100844.91;5011638;28;20042;-85
2022/09/15 09:09:23;;;;;;;12.93;6.78;;;;;;;17.41;100.00;100848.69;5011128;28;20038;-85
2022/09/15 09:12:04;;;;;;;13.65;6.95;;;;;;;17.62;100.00;100859.88;5010799;28;20088;-85
2022/09/15 09:14:59;;;;;;;14.98;6.55;;;;;;;17.67;100.00;100861.66;5010684;28;20034;-85
2022/09/15 09:18:01;;;;;;;10.20;5.80;;;;;;;17.59;100.00;100855.06;5010438;28;20109;-85
2022/09/15 09:20:40;;;;;;;9.77;5.83;;;;;;;17.58;100.00;100863.50;5011577;28;20033;-84
2022/09/15 09:23:13;;;;;;;11.17;6.03;;;;;;;17.45;100.00;100855.09;5011122;28;20281;-84
2022/09/15 09:25:41;;;;;;;8.98;5.80;;;;;;;17.43;100.00;100870.03;5010374;28;20030;-84
2022/09/15 09:28:41;;;;;;;12.13;6.40;;;;;;;17.37;100.00;100866.66;5010477;28;20025;-84
2022/09/15 09:31:14;;;;;;;15.05;6.88;;;;;;;17.16;100.00;100848.09;5006800;28;20517;-84
2022/09/15 09:34:07;;;;;;;13.40;6.65;;;;;;;17.16;100.00;100858.94;5008915;28;20026;-84
2022/09/15 09:36:34;;;;;;;10.13;6.45;;;;;;;17.20;100.00;100865.34;4999033;28;20107;-84
2022/09/15 09:39:01;;;;;;;13.38;6.25;;;;;;;17.10;100.00;100860.94;5011041;28;20026;-84
2022/09/15 09:41:34;;;;;;;14.90;5.53;;;;;;;16.95;100.00;100858.53;5007906;28;20038;-84
2022/09/15 09:44:01;;;;;;;10.52;5.45;;;;;;;16.69;100.00;100861.69;5014097;28;20058;-84
2022/09/15 09:46:27;;;;;;;9.07;5.33;;;;;;;16.57;100.00;100869.47;5010410;28;20531;-84
2022/09/15 09:49:04;;;;;;;12.90;5.63;;;;;;;16.41;100.00;100864.34;5008991;28;20375;-84
2022/09/15 09:51:50;;;;;;;19.33;6.50;;;;;;;16.22;100.00;100860.88;5008098;28;20564;-84
2022/09/15 09:54:19;;;;;;;12.45;6.03;;;;;;;16.11;100.00;100863.72;5008789;28;20041;-84
2022/09/15 09:56:46;;;;;;;16.27;6.68;;;;;;;16.04;100.00;100858.69;5010171;28;20037;-84
2022/09/15 09:59:35;;;;;;;13.05;6.10;;;;;;;16.03;100.00;100861.69;5013889;28;20091;-84
2022/09/15 10:02:11;;;;;;;12.15;5.57;;;;;;;15.77;100.00;100862.03;5001050;28;20543;-84
2022/09/15 10:04:49;;;;;;;9.70;5.60;;;;;;;15.49;100.00;100853.78;5006781;28;20026;-86
2022/09/15 10:11:01;;;;;;;12.87;6.47;;;;;;;15.18;100.00;100856.84;5038448;28;20076;-87
2022/09/15 10:13:31;;;;;;;16.00;8.03;;;;;;;15.03;100.00;100848.94;5024526;28;20291;-85
2022/09/15 10:16:08;;;;;;;16.08;7.55;;;;;;;15.03;100.00;100836.25;5039781;28;20041;-84
2022/09/15 10:18:40;;;;;;;22.02;8.50;;;;;;;15.23;100.00;100878.38;5011523;28;20038;-84
2022/09/15 10:21:08;;;;;;;14.70;8.20;;;;;;;15.22;100.00;100854.41;5020078;28;20034;-83
2022/09/15 10:23:35;;;;;;;17.88;8.43;;;;;;;15.22;100.00;100870.59;5023532;28;20067;-84
2022/09/15 10:26:15;;;;;;;12.48;8.10;;;;;;;15.32;100.00;100864.25;5012147;28;20036;-85
2022/09/15 10:28:41;;;;;;;12.38;7.60;;;;;;;15.38;100.00;100858.50;5026539;28;20489;-84
2022/09/15 10:31:40;;;;;;;19.63;8.68;;;;;;;15.38;100.00;100819.91;5053477;22;20516;-85
2022/09/15 10:34:31;;;;;;;17.92;10.45;;;;;;;15.98;100.00;100859.84;5028574;28;20037;-84
2022/09/15 10:37:14;;;;;;;14.37;7.03;;;;;;;16.28;100.00;100854.25;4997988;28;20044;-84
2022/09/15 10:39:52;;;;;;;10.87;6.00;;;;;;;16.43;100.00;100842.41;4999630;28;20293;-85
2022/09/15 10:42:26;;;;;;;10.50;4.65;;;;;;;16.66;100.00;100854.16;5011729;28;20149;-85
2022/09/15 10:45:14;;;;;;;14.90;4.80;;;;;;;17.03;100.00;100851.63;5010155;28;20036;-85
2022/09/15 10:48:17;;;;;;;10.93;3.83;;;;;;;17.20;100.00;100864.53;5012239;28;20084;-85
2022/09/15 10:51:00;;;;;;;6.65;3.05;;;;;;;16.91;100.00;100860.22;5013270;28;20041;-85
2022/09/15 10:53:37;;;;;;;5.38;2.78;;;;;;;16.61;100.00;100870.50;5008948;28;20048;-85
2022/09/15 10:56:11;;;;;;;6.10;2.63;;;;;;;16.32;100.00;100871.50;5013892;28;20061;-85
2022/09/15 10:58:59;;;;;;;8.90;2.40;;;;;;;15.98;100.00;100891.50;5006951;28;20228;-84
2022/09/15 11:01:30;;;;;;;3.92;1.92;;;;;;;15.34;100.00;100897.19;5013534;28;20034;-84
2022/09/15 11:04:25;;;;;;;5.50;1.40;;;;;;;14.61;100.00;100897.84;5013725;28;20026;-84
2022/09/15 11:07:15;;;;;;;4.20;0.90;;;;;;;14.19;100.00;100894.69;5011513;28;20419;-84
2022/09/15 11:10:00;;;;;;;3.67;1.20;;;;;;;14.44;100.00;100895.59;5013986;28;20038;-85
2022/09/15 11:12:48;;;;;;;8.00;0.90;;;;;;;14.73;100.00;100886.72;5014360;28;20036;-84
2022/09/15 11:15:32;;;;;;;5.25;1.38;;;;;;;14.75;100.00;100889.16;5010248;28;20490;-84
2022/09/15 11:18:10;;;;;;;8.95;1.10;;;;;;;14.74;100.00;100884.84;5013081;28;20029;-85
2022/09/15 11:20:38;;;;;;;6.82;1.02;;;;;;;15.09;100.00;100883.66;5014651;28;20037;-85
2022/09/15 11:23:19;;;;;;;3.55;1.13;;;;;;;15.36;100.00;100881.47;5013531;28;20029;-86
2022/09/15 11:25:50;;;;;;;4.80;1.17;;;;;;;15.48;100.00;100868.38;5012576;28;20038;-85
2022/09/15 11:28:24;;;;;;;3.13;0.93;;;;;;;15.50;100.00;100871.59;5016265;28;20060;-85
2022/09/15 11:31:14;;;;;;;6.07;0.80;;;;;;;15.32;100.00;100859.66;5014732;28;20034;-85
2022/09/15 11:33:48;;;;;;;5.77;0.83;;;;;;;15.48;100.00;100881.88;5018684;28;20375;-84
2022/09/15 11:39:18;;;;;;;5.28;0.85;;;;;;;16.45;99.73;100889.66;5003043;28;20429;-88
2022/09/15 11:42:21;;;;;;;6.35;0.93;;;;;;;16.89;100.00;100886.75;5031511;28;20025;-83
2022/09/15 11:44:47;;;;;;;3.55;0.70;;;;;;;17.41;92.49;100883.91;5016838;28;20057;-85
2022/09/15 11:47:26;;;;;;;3.67;1.00;;;;;;;17.92;95.42;100889.31;5030999;28;20553;-85
2022/09/15 11:50:10;;;;;;;8.40;1.20;;;;;;;18.24;91.70;100896.47;5031210;28;20378;-86